createdAt,value
2017-12-05T00:00:49.203Z,1025.98
2017-12-05T00:01:49.142Z,1026.04
2017-12-05T00:02:49.730Z,1026.04
2017-12-05T00:03:49.153Z,1026.05
2017-12-05T00:04:49.213Z,1026.13
2017-12-05T00:05:49.171Z,1026.04
2017-12-05T00:06:49.234Z,1026.01
2017-12-05T00:07:49.180Z,1025.99
2017-12-05T00:08:49.173Z,1025.99
2017-12-05T00:09:49.172Z,1025.98
2017-12-05T00:10:49.189Z,1025.98
2017-12-05T00:11:49.190Z,1026.01
2017-12-05T00:12:49.192Z,1025.93
2017-12-05T00:13:49.194Z,1026.00
2017-12-05T00:14:49.208Z,1025.95
2017-12-05T00:15:49.288Z,1025.90
2017-12-05T00:16:49.225Z,1025.91
2017-12-05T00:17:49.304Z,1025.92
2017-12-05T00:18:49.227Z,1025.89
2017-12-05T00:19:49.331Z,1025.92
2017-12-05T00:20:49.232Z,1025.94
2017-12-05T00:21:49.353Z,1025.93
2017-12-05T00:22:49.247Z,1025.94
2017-12-05T00:23:49.344Z,1025.87
2017-12-05T00:24:49.268Z,1025.90
2017-12-05T00:25:49.359Z,1025.91
2017-12-05T00:26:49.290Z,1025.90
2017-12-05T00:27:49.271Z,1025.92
2017-12-05T00:28:49.282Z,1025.93
2017-12-05T00:29:49.483Z,1025.87
2017-12-05T00:30:49.289Z,1025.87
2017-12-05T00:31:49.397Z,1025.86
2017-12-05T00:32:49.306Z,1025.89
2017-12-05T00:33:49.412Z,1025.83
2017-12-05T00:34:49.319Z,1025.82
2017-12-05T00:35:49.420Z,1025.89
2017-12-05T00:36:49.326Z,1025.86
2017-12-05T00:37:49.444Z,1025.85
2017-12-05T00:38:49.338Z,1025.87
2017-12-05T00:39:49.462Z,1025.89
2017-12-05T00:40:49.337Z,1025.86
2017-12-05T00:41:49.463Z,1025.87
2017-12-05T00:42:49.387Z,1025.87
2017-12-05T00:43:49.445Z,1025.90
2017-12-05T00:44:49.361Z,1025.95
2017-12-05T00:45:49.368Z,1025.91
2017-12-05T00:46:49.374Z,1025.97
2017-12-05T00:47:49.506Z,1025.94
2017-12-05T00:48:49.389Z,1026.00
2017-12-05T00:49:49.486Z,1025.97
2017-12-05T00:50:49.393Z,1025.97
2017-12-05T00:51:49.630Z,1026.02
2017-12-05T00:52:49.421Z,1025.97
2017-12-05T00:53:49.545Z,1025.96
2017-12-05T00:54:49.415Z,1026.00
2017-12-05T00:55:49.561Z,1026.02
2017-12-05T00:56:49.425Z,1025.93
2017-12-05T00:57:49.570Z,1025.96
2017-12-05T00:58:49.446Z,1026.02
2017-12-05T00:59:49.589Z,1025.98
2017-12-05T01:00:49.451Z,1026.02
2017-12-05T01:01:49.640Z,1026.06
2017-12-05T01:02:49.471Z,1026.03
2017-12-05T01:03:49.476Z,1026.08
2017-12-05T01:04:49.471Z,1026.05
2017-12-05T01:05:49.488Z,1026.10
2017-12-05T01:06:49.739Z,1026.14
2017-12-05T01:07:49.483Z,1026.05
2017-12-05T01:08:49.672Z,1026.09
2017-12-05T01:09:49.520Z,1026.05
2017-12-05T01:10:49.740Z,1026.08
2017-12-05T01:11:49.500Z,1026.04
2017-12-05T01:12:49.707Z,1026.07
2017-12-05T01:13:49.517Z,1026.05
2017-12-05T01:14:49.759Z,1026.04
2017-12-05T01:15:49.529Z,1026.03
2017-12-05T01:16:49.644Z,1026.09
2017-12-05T01:17:49.536Z,1026.07
2017-12-05T01:18:49.549Z,1026.09
2017-12-05T01:19:49.566Z,1026.08
2017-12-05T01:20:49.765Z,1026.08
2017-12-05T01:21:49.553Z,1026.08
2017-12-05T01:22:49.777Z,1026.11
2017-12-05T01:23:49.561Z,1026.10
2017-12-05T01:24:49.681Z,1026.09
2017-12-05T01:25:49.580Z,1026.08
2017-12-05T01:26:49.738Z,1026.13
2017-12-05T01:27:49.579Z,1026.12
2017-12-05T01:28:49.719Z,1026.08
2017-12-05T01:29:49.652Z,1026.10
2017-12-05T01:30:49.738Z,1026.10
2017-12-05T01:31:49.622Z,1026.12
2017-12-05T01:32:49.751Z,1026.07
2017-12-05T01:33:49.612Z,1026.08
2017-12-05T01:34:49.761Z,1026.06
2017-12-05T01:35:49.624Z,1026.07
2017-12-05T01:36:49.774Z,1026.06
2017-12-05T01:37:49.660Z,1026.09
2017-12-05T01:38:49.784Z,1026.12
2017-12-05T01:39:49.655Z,1026.10
2017-12-05T01:40:49.798Z,1026.11
2017-12-05T01:41:49.663Z,1026.09
2017-12-05T01:42:49.816Z,1026.17
2017-12-05T01:43:49.669Z,1026.16
2017-12-05T01:44:49.829Z,1026.13
2017-12-05T01:45:49.678Z,1026.17
2017-12-05T01:46:49.840Z,1026.18
2017-12-05T01:47:49.700Z,1026.20
2017-12-05T01:48:49.697Z,1026.18
2017-12-05T01:49:49.864Z,1026.17
2017-12-05T01:50:49.713Z,1026.24
2017-12-05T01:51:49.891Z,1026.22
2017-12-05T01:52:49.718Z,1026.26
2017-12-05T01:53:49.892Z,1026.25
2017-12-05T01:54:49.730Z,1026.30
2017-12-05T01:55:49.891Z,1026.22
2017-12-05T01:56:49.745Z,1026.21
2017-12-05T01:57:50.944Z,1026.21
2017-12-05T01:58:49.758Z,1026.23
2017-12-05T01:59:49.826Z,1026.22
2017-12-05T02:00:49.761Z,1026.22
2017-12-05T02:01:49.841Z,1026.22
2017-12-05T02:02:49.774Z,1026.23
2017-12-05T02:03:49.846Z,1026.27
2017-12-05T02:04:49.771Z,1026.29
2017-12-05T02:05:49.862Z,1026.21
2017-12-05T02:06:49.825Z,1026.32
2017-12-05T02:07:49.898Z,1026.30
2017-12-05T02:08:49.795Z,1026.27
2017-12-05T02:09:49.897Z,1026.25
2017-12-05T02:10:49.814Z,1026.24
2017-12-05T02:11:49.897Z,1026.22
2017-12-05T02:12:49.813Z,1026.19
2017-12-05T02:13:49.819Z,1026.20
2017-12-05T02:14:49.969Z,1026.22
2017-12-05T02:15:49.834Z,1026.22
2017-12-05T02:16:49.835Z,1026.11
2017-12-05T02:17:49.844Z,1026.15
2017-12-05T02:18:49.994Z,1026.14
2017-12-05T02:19:49.865Z,1026.12
2017-12-05T02:20:51.141Z,1026.06
2017-12-05T02:21:49.875Z,1026.14
2017-12-05T02:22:50.020Z,1026.11
2017-12-05T02:23:49.879Z,1026.12
2017-12-05T02:24:50.032Z,1026.13
2017-12-05T02:25:49.885Z,1026.17
2017-12-05T02:26:50.046Z,1026.11
2017-12-05T02:27:49.909Z,1026.10
2017-12-05T02:28:50.070Z,1026.07
2017-12-05T02:29:49.913Z,1026.10
2017-12-05T02:30:50.072Z,1026.02
2017-12-05T02:31:49.920Z,1026.02
2017-12-05T02:32:49.944Z,1025.98
2017-12-05T02:33:49.941Z,1025.94
2017-12-05T02:34:50.101Z,1025.91
2017-12-05T02:35:49.955Z,1025.90
2017-12-05T02:36:50.110Z,1025.91
2017-12-05T02:37:49.958Z,1025.93
2017-12-05T02:38:50.123Z,1025.88
2017-12-05T02:39:49.962Z,1025.89
2017-12-05T02:40:50.143Z,1025.85
2017-12-05T02:41:49.983Z,1025.85
2017-12-05T02:42:50.148Z,1025.87
2017-12-05T02:43:49.982Z,1025.82
2017-12-05T02:44:50.059Z,1025.86
2017-12-05T02:45:49.985Z,1025.81
2017-12-05T02:46:50.002Z,1025.76
2017-12-05T02:47:50.004Z,1025.85
2017-12-05T02:48:50.087Z,1025.86
2017-12-05T02:49:50.020Z,1025.86
2017-12-05T02:50:51.195Z,1025.82
2017-12-05T02:51:50.019Z,1025.84
2017-12-05T02:52:50.105Z,1025.93
2017-12-05T02:53:50.037Z,1025.91
2017-12-05T02:54:50.127Z,1025.90
2017-12-05T02:55:50.044Z,1025.94
2017-12-05T02:56:50.141Z,1025.93
2017-12-05T02:57:50.071Z,1025.94
2017-12-05T02:58:50.096Z,1025.93
2017-12-05T02:59:50.082Z,1025.95
2017-12-05T03:00:50.166Z,1025.98
2017-12-05T03:01:50.080Z,1025.96
2017-12-05T03:02:50.122Z,1026.03
2017-12-05T03:03:50.081Z,1026.01
2017-12-05T03:04:50.120Z,1026.03
2017-12-05T03:05:50.099Z,1026.06
2017-12-05T03:06:50.209Z,1026.03
2017-12-05T03:07:50.107Z,1025.99
2017-12-05T03:08:50.116Z,1026.06
2017-12-05T03:09:50.122Z,1026.02
2017-12-05T03:10:50.115Z,1026.04
2017-12-05T03:11:50.133Z,1026.01
2017-12-05T03:12:50.244Z,1025.99
2017-12-05T03:13:51.154Z,1026.06
2017-12-05T03:14:50.256Z,1026.02
2017-12-05T03:15:50.139Z,1026.06
2017-12-05T03:16:50.289Z,1026.03
2017-12-05T03:17:50.159Z,1026.05
2017-12-05T03:18:50.282Z,1026.01
2017-12-05T03:19:50.172Z,1026.00
2017-12-05T03:20:50.295Z,1026.05
2017-12-05T03:21:50.179Z,1025.95
2017-12-05T03:22:50.175Z,1025.99
2017-12-05T03:23:50.210Z,1025.96
2017-12-05T03:24:50.322Z,1025.94
2017-12-05T03:25:51.739Z,1025.98
2017-12-05T03:26:50.198Z,1025.88
2017-12-05T03:27:50.211Z,1025.97
2017-12-05T03:28:50.394Z,1025.91
2017-12-05T03:29:50.217Z,1025.89
2017-12-05T03:30:50.224Z,1025.94
2017-12-05T03:31:50.248Z,1025.89
2017-12-05T03:32:50.416Z,1025.93
2017-12-05T03:33:50.241Z,1025.91
2017-12-05T03:34:52.376Z,1025.89
2017-12-05T03:35:50.244Z,1025.85
2017-12-05T03:36:50.444Z,1025.94
2017-12-05T03:37:50.261Z,1025.91
2017-12-05T03:38:50.457Z,1025.87
2017-12-05T03:39:50.275Z,1025.91
2017-12-05T03:40:50.464Z,1025.97
2017-12-05T03:41:50.279Z,1025.94
2017-12-05T03:42:50.482Z,1025.94
2017-12-05T03:43:50.295Z,1025.96
2017-12-05T03:44:50.302Z,1025.99
2017-12-05T03:45:50.325Z,1025.98
2017-12-05T03:46:50.514Z,1025.93
2017-12-05T03:47:50.317Z,1025.99
2017-12-05T03:48:50.518Z,1025.94
2017-12-05T03:49:50.324Z,1025.89
2017-12-05T03:50:50.527Z,1025.92
2017-12-05T03:51:50.350Z,1025.93
2017-12-05T03:52:50.441Z,1025.92
2017-12-05T03:53:50.354Z,1025.91
2017-12-05T03:54:50.566Z,1025.90
2017-12-05T03:55:50.350Z,1025.96
2017-12-05T03:56:50.461Z,1025.93
2017-12-05T03:57:50.367Z,1025.92
2017-12-05T03:58:50.486Z,1025.89
2017-12-05T03:59:50.376Z,1025.88
2017-12-05T04:00:50.387Z,1025.83
2017-12-05T04:01:50.381Z,1025.87
2017-12-05T04:02:51.438Z,1025.88
2017-12-05T04:03:50.391Z,1025.88
2017-12-05T04:04:50.420Z,1025.86
2017-12-05T04:05:50.408Z,1025.87
2017-12-05T04:06:50.445Z,1025.96
2017-12-05T04:07:50.411Z,1025.95
2017-12-05T04:08:50.446Z,1025.85
2017-12-05T04:09:50.420Z,1025.86
2017-12-05T04:10:50.468Z,1025.86
2017-12-05T04:11:50.436Z,1025.82
2017-12-05T04:12:50.496Z,1025.92
2017-12-05T04:13:50.445Z,1025.90
2017-12-05T04:14:50.456Z,1025.90
2017-12-05T04:15:50.507Z,1025.87
2017-12-05T04:16:50.472Z,1025.93
2017-12-05T04:17:50.496Z,1025.94
2017-12-05T04:18:50.482Z,1025.88
2017-12-05T04:19:50.545Z,1025.91
2017-12-05T04:20:50.503Z,1025.90
2017-12-05T04:21:50.540Z,1025.89
2017-12-05T04:22:50.502Z,1025.84
2017-12-05T04:23:50.549Z,1025.84
2017-12-05T04:24:50.522Z,1025.87
2017-12-05T04:25:51.568Z,1025.86
2017-12-05T04:26:50.541Z,1025.84
2017-12-05T04:27:50.587Z,1025.87
2017-12-05T04:28:50.539Z,1025.89
2017-12-05T04:29:51.264Z,1026.00
2017-12-05T04:30:50.543Z,1025.95
2017-12-05T04:31:50.619Z,1025.97
2017-12-05T04:32:50.549Z,1026.02
2017-12-05T04:33:50.631Z,1026.03
2017-12-05T04:34:50.571Z,1026.08
2017-12-05T04:35:50.635Z,1026.02
2017-12-05T04:36:50.573Z,1026.10
2017-12-05T04:37:52.266Z,1026.04
2017-12-05T04:38:52.727Z,1026.03
2017-12-05T04:39:50.590Z,1026.04
2017-12-05T04:40:50.682Z,1026.04
2017-12-05T04:41:50.610Z,1026.02
2017-12-05T04:42:50.697Z,1026.04
2017-12-05T04:43:50.600Z,1025.98
2017-12-05T04:44:50.605Z,1026.04
2017-12-05T04:45:50.714Z,1025.99
2017-12-05T04:46:50.619Z,1026.02
2017-12-05T04:47:55.329Z,1026.00
2017-12-05T04:48:50.633Z,1025.98
2017-12-05T04:49:55.339Z,1025.96
2017-12-05T04:50:50.647Z,1025.97
2017-12-05T04:51:52.738Z,1026.07
2017-12-05T04:52:50.646Z,1026.02
2017-12-05T04:53:50.779Z,1025.97
2017-12-05T04:54:50.666Z,1025.97
2017-12-05T04:55:55.398Z,1026.00
2017-12-05T04:56:50.676Z,1025.96
2017-12-05T04:57:50.796Z,1026.01
2017-12-05T04:58:50.690Z,1026.01
2017-12-05T04:59:50.808Z,1026.01
2017-12-05T05:00:50.705Z,1026.02
2017-12-05T05:01:51.838Z,1026.05
2017-12-05T05:02:50.700Z,1026.05
2017-12-05T05:03:51.866Z,1026.05
2017-12-05T05:04:50.718Z,1025.96
2017-12-05T05:05:50.727Z,1025.94
2017-12-05T05:06:50.739Z,1025.99
2017-12-05T05:07:50.859Z,1025.97
2017-12-05T05:08:50.729Z,1025.93
2017-12-05T05:09:50.878Z,1025.90
2017-12-05T05:10:50.753Z,1025.93
2017-12-05T05:11:50.843Z,1025.89
2017-12-05T05:12:50.750Z,1025.89
2017-12-05T05:13:50.865Z,1025.88
2017-12-05T05:14:50.770Z,1025.91
2017-12-05T05:15:51.873Z,1025.97
2017-12-05T05:16:50.771Z,1025.91
2017-12-05T05:17:51.870Z,1025.86
2017-12-05T05:18:50.778Z,1025.85
2017-12-05T05:19:50.860Z,1025.85
2017-12-05T05:20:50.791Z,1025.86
2017-12-05T05:21:50.854Z,1025.89
2017-12-05T05:22:50.795Z,1025.94
2017-12-05T05:23:50.883Z,1025.93
2017-12-05T05:24:50.809Z,1025.92
2017-12-05T05:25:50.882Z,1025.95
2017-12-05T05:26:50.832Z,1025.95
2017-12-05T05:27:51.917Z,1025.97
2017-12-05T05:28:50.832Z,1025.97
2017-12-05T05:29:50.931Z,1025.98
2017-12-05T05:30:50.843Z,1025.97
2017-12-05T05:31:50.938Z,1025.97
2017-12-05T05:32:50.840Z,1025.96
2017-12-05T05:33:50.994Z,1026.00
2017-12-05T05:34:50.860Z,1026.02
2017-12-05T05:35:50.867Z,1025.96
2017-12-05T05:36:51.015Z,1025.98
2017-12-05T05:37:50.891Z,1025.98
2017-12-05T05:38:50.916Z,1025.94
2017-12-05T05:39:50.885Z,1025.97
2017-12-05T05:40:50.927Z,1025.92
2017-12-05T05:41:50.896Z,1025.95
2017-12-05T05:42:51.044Z,1025.96
2017-12-05T05:43:50.914Z,1025.97
2017-12-05T05:44:56.894Z,1026.01
2017-12-05T05:45:50.935Z,1025.99
2017-12-05T05:46:51.070Z,1026.00
2017-12-05T05:47:50.923Z,1025.96
2017-12-05T05:48:51.093Z,1025.99
2017-12-05T05:49:50.941Z,1025.99
2017-12-05T05:50:51.016Z,1026.07
2017-12-05T05:51:50.943Z,1026.07
2017-12-05T05:52:51.018Z,1025.97
2017-12-05T05:53:50.960Z,1026.01
2017-12-05T05:54:51.045Z,1026.01
2017-12-05T05:55:50.962Z,1026.05
2017-12-05T05:56:51.056Z,1026.04
2017-12-05T05:57:50.972Z,1026.05
2017-12-05T05:58:51.067Z,1026.12
2017-12-05T05:59:51.003Z,1026.10
2017-12-05T06:00:51.079Z,1026.08
2017-12-05T06:01:51.014Z,1026.11
2017-12-05T06:02:51.087Z,1026.15
2017-12-05T06:03:51.014Z,1026.18
2017-12-05T06:04:52.162Z,1026.23
2017-12-05T06:05:51.034Z,1026.20
2017-12-05T06:06:51.098Z,1026.21
2017-12-05T06:07:51.028Z,1026.20
2017-12-05T06:08:51.135Z,1026.23
2017-12-05T06:09:51.039Z,1026.16
2017-12-05T06:10:51.125Z,1026.21
2017-12-05T06:11:51.055Z,1026.23
2017-12-05T06:12:51.134Z,1026.22
2017-12-05T06:13:51.062Z,1026.29
2017-12-05T06:14:51.145Z,1026.25
2017-12-05T06:15:51.087Z,1026.29
2017-12-05T06:16:51.173Z,1026.31
2017-12-05T06:17:51.086Z,1026.32
2017-12-05T06:18:51.084Z,1026.32
2017-12-05T06:19:51.101Z,1026.36
2017-12-05T06:20:51.188Z,1026.32
2017-12-05T06:21:51.095Z,1026.34
2017-12-05T06:22:51.218Z,1026.31
2017-12-05T06:23:51.116Z,1026.34
2017-12-05T06:24:52.147Z,1026.35
2017-12-05T06:25:51.123Z,1026.30
2017-12-05T06:26:51.243Z,1026.32
2017-12-05T06:27:51.120Z,1026.34
2017-12-05T06:28:51.241Z,1026.43
2017-12-05T06:29:51.133Z,1026.37
2017-12-05T06:30:51.156Z,1026.40
2017-12-05T06:31:51.154Z,1026.41
2017-12-05T06:32:51.168Z,1026.41
2017-12-05T06:33:51.156Z,1026.39
2017-12-05T06:34:51.185Z,1026.41
2017-12-05T06:35:51.172Z,1026.42
2017-12-05T06:36:52.221Z,1026.44
2017-12-05T06:37:51.182Z,1026.42
2017-12-05T06:38:51.238Z,1026.46
2017-12-05T06:39:51.183Z,1026.46
2017-12-05T06:40:51.227Z,1026.44
2017-12-05T06:41:51.194Z,1026.46
2017-12-05T06:42:51.237Z,1026.45
2017-12-05T06:43:51.206Z,1026.44
2017-12-05T06:44:51.247Z,1026.45
2017-12-05T06:45:51.209Z,1026.48
2017-12-05T06:46:51.280Z,1026.44
2017-12-05T06:47:51.241Z,1026.39
2017-12-05T06:48:51.292Z,1026.37
2017-12-05T06:49:51.287Z,1026.33
2017-12-05T06:50:51.284Z,1026.38
2017-12-05T06:51:51.299Z,1026.35
2017-12-05T06:52:51.250Z,1026.32
2017-12-05T06:53:51.310Z,1026.34
2017-12-05T06:54:51.272Z,1026.29
2017-12-05T06:55:51.331Z,1026.27
2017-12-05T06:56:51.286Z,1026.34
2017-12-05T06:57:51.342Z,1026.26
2017-12-05T06:58:51.293Z,1026.28
2017-12-05T06:59:51.360Z,1026.22
2017-12-05T07:00:51.294Z,1026.28
2017-12-05T07:01:51.426Z,1026.30
2017-12-05T07:02:51.317Z,1026.26
2017-12-05T07:03:51.382Z,1026.27
2017-12-05T07:04:51.313Z,1026.29
2017-12-05T07:05:51.397Z,1026.25
2017-12-05T07:06:51.333Z,1026.29
2017-12-05T07:07:51.406Z,1026.32
2017-12-05T07:08:51.337Z,1026.30
2017-12-05T07:09:51.435Z,1026.32
2017-12-05T07:10:51.357Z,1026.29
2017-12-05T07:11:51.450Z,1026.34
2017-12-05T07:12:51.357Z,1026.29
2017-12-05T07:13:51.479Z,1026.35
2017-12-05T07:14:51.360Z,1026.43
2017-12-05T07:15:51.467Z,1026.36
2017-12-05T07:16:51.373Z,1026.40
2017-12-05T07:17:51.476Z,1026.36
2017-12-05T07:18:51.385Z,1026.40
2017-12-05T07:19:51.490Z,1026.40
2017-12-05T07:20:51.389Z,1026.44
2017-12-05T07:21:51.502Z,1026.43
2017-12-05T07:22:51.405Z,1026.39
2017-12-05T07:23:51.534Z,1026.48
2017-12-05T07:24:51.418Z,1026.45
2017-12-05T07:25:51.535Z,1026.47
2017-12-05T07:26:51.438Z,1026.50
2017-12-05T07:27:51.542Z,1026.40
2017-12-05T07:28:51.438Z,1026.48
2017-12-05T07:29:51.565Z,1026.47
2017-12-05T07:30:51.457Z,1026.51
2017-12-05T07:31:51.469Z,1026.44
2017-12-05T07:32:51.465Z,1026.49
2017-12-05T07:33:51.487Z,1026.45
2017-12-05T07:34:51.485Z,1026.45
2017-12-05T07:35:51.497Z,1026.46
2017-12-05T07:36:51.473Z,1026.42
2017-12-05T07:37:51.538Z,1026.38
2017-12-05T07:38:51.482Z,1026.38
2017-12-05T07:39:51.512Z,1026.40
2017-12-05T07:40:51.542Z,1026.39
2017-12-05T07:41:51.500Z,1026.44
2017-12-05T07:42:51.561Z,1026.42
2017-12-05T07:43:51.522Z,1026.43
2017-12-05T07:44:51.563Z,1026.41
2017-12-05T07:45:51.533Z,1026.46
2017-12-05T07:46:51.628Z,1026.50
2017-12-05T07:47:51.543Z,1026.44
2017-12-05T07:48:51.549Z,1026.43
2017-12-05T07:49:51.540Z,1026.41
2017-12-05T07:50:51.615Z,1026.50
2017-12-05T07:51:51.553Z,1026.43
2017-12-05T07:52:51.659Z,1026.43
2017-12-05T07:53:51.558Z,1026.40
2017-12-05T07:54:51.659Z,1026.42
2017-12-05T07:55:51.567Z,1026.43
2017-12-05T07:56:51.674Z,1026.44
2017-12-05T07:57:51.578Z,1026.42
2017-12-05T07:58:51.689Z,1026.44
2017-12-05T07:59:51.599Z,1026.43
2017-12-05T08:00:51.601Z,1026.55
2017-12-05T08:01:51.640Z,1026.50
2017-12-05T08:02:51.605Z,1026.45
2017-12-05T08:03:51.666Z,1026.48
2017-12-05T08:04:51.664Z,1026.51
2017-12-05T08:05:52.703Z,1026.49
2017-12-05T08:06:51.625Z,1026.56
2017-12-05T08:07:52.713Z,1026.48
2017-12-05T08:08:51.649Z,1026.58
2017-12-05T08:09:51.647Z,1026.58
2017-12-05T08:10:51.720Z,1026.59
2017-12-05T08:11:51.655Z,1026.53
2017-12-05T08:12:51.725Z,1026.62
2017-12-05T08:13:51.675Z,1026.59
2017-12-05T08:14:51.736Z,1026.57
2017-12-05T08:15:51.677Z,1026.54
2017-12-05T08:16:51.741Z,1026.56
2017-12-05T08:17:51.673Z,1026.50
2017-12-05T08:18:51.716Z,1026.56
2017-12-05T08:19:51.694Z,1026.55
2017-12-05T08:20:51.698Z,1026.56
2017-12-05T08:21:51.700Z,1026.56
2017-12-05T08:22:53.746Z,1026.58
2017-12-05T08:23:51.723Z,1026.48
2017-12-05T08:24:51.737Z,1026.57
2017-12-05T08:25:51.721Z,1026.55
2017-12-05T08:26:51.817Z,1026.50
2017-12-05T08:27:51.822Z,1026.58
2017-12-05T08:28:51.823Z,1026.56
2017-12-05T08:29:51.746Z,1026.55
2017-12-05T08:30:51.834Z,1026.56
2017-12-05T08:31:51.761Z,1026.56
2017-12-05T08:32:51.864Z,1026.62
2017-12-05T08:33:52.308Z,1026.58
2017-12-05T08:34:51.767Z,1026.54
2017-12-05T08:35:51.911Z,1026.51
2017-12-05T08:36:51.785Z,1026.55
2017-12-05T08:37:51.780Z,1026.52
2017-12-05T08:38:51.804Z,1026.55
2017-12-05T08:39:51.804Z,1026.52
2017-12-05T08:40:51.793Z,1026.52
2017-12-05T08:41:51.963Z,1026.56
2017-12-05T08:42:51.860Z,1026.57
2017-12-05T08:43:51.815Z,1026.57
2017-12-05T08:44:51.978Z,1026.58
2017-12-05T08:45:51.820Z,1026.57
2017-12-05T08:46:51.829Z,1026.63
2017-12-05T08:47:51.992Z,1026.62
2017-12-05T08:48:51.843Z,1026.62
2017-12-05T08:49:52.105Z,1026.60
2017-12-05T08:50:51.854Z,1026.61
2017-12-05T08:51:52.013Z,1026.65
2017-12-05T08:52:51.856Z,1026.70
2017-12-05T08:53:52.047Z,1026.67
2017-12-05T08:54:51.880Z,1026.69
2017-12-05T08:55:51.889Z,1026.66
2017-12-05T08:56:51.894Z,1026.67
2017-12-05T08:57:51.912Z,1026.66
2017-12-05T08:58:52.077Z,1026.68
2017-12-05T08:59:51.908Z,1026.79
2017-12-05T09:00:51.978Z,1026.73
2017-12-05T09:01:51.894Z,1026.73
2017-12-05T09:02:51.998Z,1026.72
2017-12-05T09:03:51.918Z,1026.70
2017-12-05T09:04:52.004Z,1026.76
2017-12-05T09:05:51.920Z,1026.74
2017-12-05T09:06:52.015Z,1026.72
2017-12-05T09:07:51.932Z,1026.74
2017-12-05T09:08:52.052Z,1026.74
2017-12-05T09:09:51.944Z,1026.79
2017-12-05T09:10:52.037Z,1026.76
2017-12-05T09:11:51.980Z,1026.71
2017-12-05T09:12:52.056Z,1026.77
2017-12-05T09:13:51.973Z,1026.76
2017-12-05T09:14:52.085Z,1026.76
2017-12-05T09:15:51.984Z,1026.74
2017-12-05T09:16:52.093Z,1026.80
2017-12-05T09:17:51.980Z,1026.80
2017-12-05T09:18:52.097Z,1026.84
2017-12-05T09:19:51.996Z,1026.83
2017-12-05T09:20:52.019Z,1026.76
2017-12-05T09:21:52.124Z,1026.77
2017-12-05T09:22:52.008Z,1026.82
2017-12-05T09:23:52.133Z,1026.78
2017-12-05T09:24:52.028Z,1026.81
2017-12-05T09:25:52.165Z,1026.82
2017-12-05T09:26:52.029Z,1026.83
2017-12-05T09:27:53.188Z,1026.84
2017-12-05T09:28:52.051Z,1026.83
2017-12-05T09:29:52.179Z,1026.86
2017-12-05T09:30:52.068Z,1026.93
2017-12-05T09:31:52.060Z,1026.89
2017-12-05T09:32:52.228Z,1026.92
2017-12-05T09:33:52.074Z,1026.91
2017-12-05T09:34:52.203Z,1026.89
2017-12-05T09:35:52.080Z,1026.83
2017-12-05T09:36:52.228Z,1026.87
2017-12-05T09:37:52.081Z,1026.86
2017-12-05T09:38:52.238Z,1026.93
2017-12-05T09:39:52.094Z,1026.84
2017-12-05T09:40:52.255Z,1026.86
2017-12-05T09:41:52.100Z,1026.85
2017-12-05T09:42:52.262Z,1026.90
2017-12-05T09:43:52.122Z,1026.88
2017-12-05T09:44:52.278Z,1026.85
2017-12-05T09:45:52.119Z,1026.87
2017-12-05T09:46:52.290Z,1026.84
2017-12-05T09:47:52.140Z,1026.88
2017-12-05T09:48:52.298Z,1026.83
2017-12-05T09:49:52.141Z,1026.85
2017-12-05T09:50:52.334Z,1026.87
2017-12-05T09:51:52.182Z,1026.85
2017-12-05T09:52:54.269Z,1026.83
2017-12-05T09:53:52.156Z,1026.80
2017-12-05T09:54:52.167Z,1026.82
2017-12-05T09:55:52.339Z,1026.84
2017-12-05T09:56:52.204Z,1026.83
2017-12-05T09:57:52.356Z,1026.90
2017-12-05T09:58:52.200Z,1026.86
2017-12-05T09:59:52.368Z,1026.82
2017-12-05T10:00:52.195Z,1026.90
2017-12-05T10:01:52.383Z,1026.79
2017-12-05T10:02:52.203Z,1026.83
2017-12-05T10:03:52.386Z,1026.82
2017-12-05T10:04:52.223Z,1026.80
2017-12-05T10:05:53.333Z,1026.84
2017-12-05T10:06:52.218Z,1026.81
2017-12-05T10:07:52.430Z,1026.85
2017-12-05T10:08:52.225Z,1026.78
2017-12-05T10:09:52.329Z,1026.81
2017-12-05T10:10:52.248Z,1026.84
2017-12-05T10:11:52.349Z,1026.80
2017-12-05T10:12:52.251Z,1026.76
2017-12-05T10:13:52.363Z,1026.74
2017-12-05T10:14:52.267Z,1026.73
2017-12-05T10:15:52.373Z,1026.76
2017-12-05T10:16:52.271Z,1026.75
2017-12-05T10:17:52.289Z,1026.73
2017-12-05T10:18:52.289Z,1026.75
2017-12-05T10:19:52.395Z,1026.76
2017-12-05T10:20:52.300Z,1026.64
2017-12-05T10:21:52.419Z,1026.69
2017-12-05T10:22:52.303Z,1026.71
2017-12-05T10:23:52.439Z,1026.69
2017-12-05T10:24:52.326Z,1026.70
2017-12-05T10:25:52.322Z,1026.68
2017-12-05T10:26:52.324Z,1026.71
2017-12-05T10:27:52.462Z,1026.70
2017-12-05T10:28:52.328Z,1026.73
2017-12-05T10:29:52.346Z,1026.74
2017-12-05T10:30:52.344Z,1026.74
2017-12-05T10:31:52.365Z,1026.70
2017-12-05T10:32:52.373Z,1026.74
2017-12-05T10:33:52.369Z,1026.72
2017-12-05T10:34:52.369Z,1026.71
2017-12-05T10:35:52.395Z,1026.71
2017-12-05T10:36:52.388Z,1026.74
2017-12-05T10:37:52.381Z,1026.72
2017-12-05T10:38:52.391Z,1026.72
2017-12-05T10:39:52.403Z,1026.77
2017-12-05T10:40:52.538Z,1026.80
2017-12-05T10:41:52.400Z,1026.73
2017-12-05T10:42:52.412Z,1026.73
2017-12-05T10:43:52.422Z,1026.75
2017-12-05T10:44:52.422Z,1026.74
2017-12-05T10:45:52.432Z,1026.77
2017-12-05T10:46:53.601Z,1026.76
2017-12-05T10:47:52.434Z,1026.80
2017-12-05T10:48:52.481Z,1026.81
2017-12-05T10:49:52.448Z,1026.74
2017-12-05T10:50:52.443Z,1026.70
2017-12-05T10:51:52.462Z,1026.71
2017-12-05T10:52:52.456Z,1026.71
2017-12-05T10:53:52.484Z,1026.72
2017-12-05T10:54:52.466Z,1026.69
2017-12-05T10:55:52.473Z,1026.72
2017-12-05T10:56:52.473Z,1026.77
2017-12-05T10:57:52.485Z,1026.69
2017-12-05T10:58:52.486Z,1026.67
2017-12-05T10:59:52.498Z,1026.65
2017-12-05T11:00:52.524Z,1026.65
2017-12-05T11:01:52.506Z,1026.64
2017-12-05T11:02:52.512Z,1026.70
2017-12-05T11:03:52.518Z,1026.66
2017-12-05T11:04:52.716Z,1026.65
2017-12-05T11:05:54.332Z,1026.67
2017-12-05T11:06:52.537Z,1026.63
2017-12-05T11:07:52.664Z,1026.66
2017-12-05T11:08:52.540Z,1026.59
2017-12-05T11:09:52.689Z,1026.62
2017-12-05T11:10:52.547Z,1026.60
2017-12-05T11:11:52.691Z,1026.57
2017-12-05T11:12:52.577Z,1026.56
2017-12-05T11:13:52.704Z,1026.58
2017-12-05T11:14:52.571Z,1026.58
2017-12-05T11:15:52.776Z,1026.47
2017-12-05T11:16:52.580Z,1026.52
2017-12-05T11:17:52.794Z,1026.57
2017-12-05T11:18:52.579Z,1026.54
2017-12-05T11:19:52.863Z,1026.53
2017-12-05T11:20:52.620Z,1026.53
2017-12-05T11:21:52.609Z,1026.47
2017-12-05T11:22:52.599Z,1026.54
2017-12-05T11:23:52.623Z,1026.53
2017-12-05T11:24:52.621Z,1026.46
2017-12-05T11:25:52.623Z,1026.47
2017-12-05T11:26:52.636Z,1026.45
2017-12-05T11:27:52.641Z,1026.48
2017-12-05T11:28:52.770Z,1026.50
2017-12-05T11:29:52.637Z,1026.43
2017-12-05T11:30:52.662Z,1026.45
2017-12-05T11:31:52.655Z,1026.43
2017-12-05T11:32:52.663Z,1026.45
2017-12-05T11:33:52.668Z,1026.42
2017-12-05T11:34:52.690Z,1026.46
2017-12-05T11:35:52.673Z,1026.54
2017-12-05T11:36:52.689Z,1026.41
2017-12-05T11:37:52.698Z,1026.52
2017-12-05T11:38:52.697Z,1026.48
2017-12-05T11:39:52.707Z,1026.53
2017-12-05T11:40:52.692Z,1026.51
2017-12-05T11:41:52.715Z,1026.52
2017-12-05T11:42:52.784Z,1026.52
2017-12-05T11:43:52.735Z,1026.49
2017-12-05T11:44:52.767Z,1026.57
2017-12-05T11:45:52.736Z,1026.51
2017-12-05T11:46:52.783Z,1026.53
2017-12-05T11:47:52.730Z,1026.49
2017-12-05T11:48:52.800Z,1026.46
2017-12-05T11:49:52.745Z,1026.50
2017-12-05T11:50:52.818Z,1026.55
2017-12-05T11:51:52.777Z,1026.46
2017-12-05T11:52:52.826Z,1026.49
2017-12-05T11:53:52.766Z,1026.46
2017-12-05T11:54:52.766Z,1026.46
2017-12-05T11:55:52.777Z,1026.52
2017-12-05T11:56:52.873Z,1026.47
2017-12-05T11:57:52.788Z,1026.52
2017-12-05T11:58:52.869Z,1026.50
2017-12-05T11:59:52.820Z,1026.46
2017-12-05T12:00:52.883Z,1026.50
2017-12-05T12:01:52.819Z,1026.49
2017-12-05T12:02:52.898Z,1026.49
2017-12-05T12:03:52.823Z,1026.42
2017-12-05T12:04:52.818Z,1026.43
2017-12-05T12:05:52.917Z,1026.45